Time;durP1;ratioP1;P1;durP2;ratioP2;P2;SDS_P1;SDS_P2;PMS_P1;PMS_P2;Temp;Humidity;BMP_temperature;BMP_pressure;BME280_temperature;BME280_humidity;BME280_pressure;Samples;Min_cycle;Max_cycle;Signal;HPM_P1;HPM_P2
2021/11/22 00:02:23;;;;;;;0.40;0.22;;;21.10;62.70;;;;;;6213958;23;20317;-71
2021/11/22 00:04:50;;;;;;;0.50;0.35;;;21.10;62.70;;;;;;6187931;23;20418;-71
2021/11/22 00:07:16;;;;;;;0.82;0.40;;;21.10;62.80;;;;;;6214497;23;20024;-71
2021/11/22 00:09:43;;;;;;;0.82;0.30;;;21.10;62.80;;;;;;6187986;23;19997;-71
2021/11/22 00:12:09;;;;;;;1.45;0.40;;;21.10;62.70;;;;;;6188306;23;20434;-71
2021/11/22 00:14:36;;;;;;;2.25;0.68;;;21.10;62.80;;;;;;6214599;23;20008;-71
2021/11/22 00:17:01;;;;;;;0.57;0.40;;;21.10;62.80;;;;;;6187751;23;20012;-71
2021/11/22 00:19:27;;;;;;;0.57;0.20;;;21.10;62.80;;;;;;6187934;23;20004;-71
2021/11/22 00:21:53;;;;;;;0.55;0.40;;;21.20;62.90;;;;;;6187846;23;20005;-71
2021/11/22 00:24:19;;;;;;;0.30;0.30;;;21.10;62.80;;;;;;6187918;23;19997;-71
2021/11/22 00:26:44;;;;;;;0.73;0.40;;;21.20;62.90;;;;;;6214106;23;20008;-71
2021/11/22 00:29:10;;;;;;;0.93;0.40;;;21.20;62.90;;;;;;6214302;23;20007;-71
2021/11/22 00:31:36;;;;;;;1.15;0.30;;;21.10;62.80;;;;;;6213870;23;20076;-71
2021/11/22 00:34:02;;;;;;;0.80;0.40;;;21.20;62.90;;;;;;6214492;23;20033;-71
2021/11/22 00:36:28;;;;;;;0.40;0.40;;;21.20;63.00;;;;;;6214393;23;20001;-71
2021/11/22 00:38:54;;;;;;;1.08;0.43;;;21.20;63.00;;;;;;6187856;23;20008;-71
2021/11/22 00:41:19;;;;;;;1.00;0.30;;;21.20;63.00;;;;;;6214315;23;20004;-71
2021/11/22 00:43:45;;;;;;;0.40;0.40;;;21.10;63.00;;;;;;6187654;23;20574;-71
2021/11/22 00:46:11;;;;;;;0.63;0.50;;;21.20;63.00;;;;;;6162861;23;20144;-71
2021/11/22 00:48:36;;;;;;;0.63;0.40;;;21.20;63.10;;;;;;6187711;23;20001;-71
2021/11/22 00:51:02;;;;;;;2.05;0.45;;;21.10;63.00;;;;;;6162839;23;20001;-71
2021/11/22 00:53:31;;;;;;;0.38;0.30;;;21.20;63.10;;;;;;6187837;23;20004;-71
2021/11/22 00:55:57;;;;;;;0.65;0.40;;;21.20;63.10;;;;;;6214416;23;20518;-71
2021/11/22 00:58:23;;;;;;;0.55;0.40;;;21.20;63.20;;;;;;6187895;23;20032;-71
2021/11/22 01:00:48;;;;;;;0.85;0.30;;;21.20;63.10;;;;;;6213874;23;20000;-71
2021/11/22 01:03:15;;;;;;;0.43;0.35;;;21.20;63.10;;;;;;6187730;23;20005;-71
2021/11/22 01:05:40;;;;;;;0.75;0.30;;;21.10;63.10;;;;;;6187720;23;19997;-71
2021/11/22 01:08:06;;;;;;;0.47;0.40;;;21.20;63.10;;;;;;6214305;23;20071;-71
2021/11/22 01:10:32;;;;;;;1.75;0.30;;;21.10;63.10;;;;;;6188072;23;20463;-71
2021/11/22 01:12:58;;;;;;;1.55;0.45;;;21.10;63.10;;;;;;6187635;23;20040;-71
2021/11/22 01:15:24;;;;;;;0.47;0.40;;;21.10;63.20;;;;;;6215759;23;20005;-71
2021/11/22 01:17:51;;;;;;;0.30;0.30;;;21.10;63.20;;;;;;6189439;23;20058;-71
2021/11/22 01:20:18;;;;;;;2.70;0.50;;;21.20;63.20;;;;;;6189508;23;20071;-71
2021/11/22 01:22:44;;;;;;;0.32;0.20;;;21.10;63.30;;;;;;6189466;23;20031;-71
2021/11/22 01:25:11;;;;;;;0.35;0.20;;;21.10;64.30;;;;;;6189591;23;20007;-71
2021/11/22 01:27:36;;;;;;;1.00;0.47;;;21.20;63.30;;;;;;6189392;23;20012;-71
2021/11/22 01:30:08;;;;;;;0.95;0.47;;;21.10;64.30;;;;;;6189050;23;20007;-71
2021/11/22 01:32:34;;;;;;;2.00;0.43;;;21.10;63.30;;;;;;6189279;23;20032;-71
2021/11/22 01:34:59;;;;;;;1.13;0.40;;;21.10;63.30;;;;;;6189264;23;20000;-71
2021/11/22 01:37:25;;;;;;;0.82;0.40;;;21.10;63.30;;;;;;6189489;23;20007;-71
2021/11/22 01:39:51;;;;;;;3.58;0.40;;;21.10;63.30;;;;;;6215674;23;20008;-71
2021/11/22 01:42:16;;;;;;;0.85;0.38;;;21.10;63.30;;;;;;6189171;23;20321;-71
2021/11/22 01:44:42;;;;;;;0.93;0.50;;;21.10;63.30;;;;;;6188895;23;20068;-71
2021/11/22 01:47:08;;;;;;;0.43;0.20;;;21.10;63.30;;;;;;6215691;23;20021;-71
2021/11/22 01:49:35;;;;;;;1.55;0.40;;;21.10;63.40;;;;;;6215725;23;20007;-71
2021/11/22 01:52:00;;;;;;;2.15;0.40;;;21.10;63.40;;;;;;6215540;23;20004;-71
2021/11/22 01:54:26;;;;;;;1.10;0.40;;;21.10;63.40;;;;;;6189175;23;20007;-71
2021/11/22 01:56:52;;;;;;;0.35;0.30;;;21.10;63.40;;;;;;6215552;23;20083;-71
2021/11/22 01:59:17;;;;;;;1.65;0.50;;;21.10;63.40;;;;;;6215349;23;20075;-71
2021/11/22 02:01:43;;;;;;;0.75;0.30;;;21.10;63.50;;;;;;6189012;23;20160;-71
2021/11/22 02:04:09;;;;;;;0.57;0.30;;;21.10;63.50;;;;;;6189218;23;19997;-71
2021/11/22 02:06:35;;;;;;;1.52;0.40;;;21.10;63.50;;;;;;6189136;23;20001;-71
2021/11/22 02:09:00;;;;;;;0.32;0.30;;;21.10;63.50;;;;;;6215350;23;20001;-71
2021/11/22 02:11:26;;;;;;;0.98;0.30;;;21.10;63.50;;;;;;6215269;23;20075;-71
2021/11/22 02:13:52;;;;;;;1.65;0.30;;;21.10;63.60;;;;;;6215323;23;20404;-71
2021/11/22 02:16:17;;;;;;;0.40;0.40;;;21.10;63.60;;;;;;6215411;23;20058;-71
2021/11/22 02:18:43;;;;;;;1.33;0.40;;;21.10;63.60;;;;;;6215300;23;20067;-71
2021/11/22 02:21:09;;;;;;;1.00;0.43;;;21.10;63.50;;;;;;6215291;23;19997;-71
2021/11/22 02:23:35;;;;;;;0.70;0.40;;;21.10;63.60;;;;;;6188799;23;20001;-71
2021/11/22 02:26:00;;;;;;;1.48;0.40;;;21.10;63.60;;;;;;6214205;23;20031;-71
2021/11/22 02:28:26;;;;;;;1.20;0.35;;;21.10;63.60;;;;;;6188886;23;20023;-71
2021/11/22 02:30:53;;;;;;;2.17;0.50;;;21.10;63.60;;;;;;6188788;23;20001;-71
2021/11/22 02:33:21;;;;;;;0.88;0.38;;;21.10;63.60;;;;;;6215425;23;20032;-71
2021/11/22 02:35:49;;;;;;;0.60;0.30;;;21.10;63.60;;;;;;6188589;23;20001;-71
2021/11/22 02:38:19;;;;;;;0.75;0.43;;;21.10;63.60;;;;;;6189064;23;20000;-71
2021/11/22 02:40:45;;;;;;;0.30;0.20;;;21.10;63.60;;;;;;6188558;23;20455;-71
2021/11/22 02:43:11;;;;;;;0.35;0.28;;;21.10;63.70;;;;;;6188949;23;20000;-71
2021/11/22 02:45:36;;;;;;;0.95;0.30;;;21.10;63.70;;;;;;6188638;23;20309;-71
2021/11/22 02:48:02;;;;;;;0.50;0.40;;;21.10;63.70;;;;;;6188471;23;20001;-71
2021/11/22 02:50:28;;;;;;;0.45;0.45;;;21.10;63.70;;;;;;6215476;23;20024;-71
2021/11/22 02:52:53;;;;;;;0.22;0.20;;;21.10;63.70;;;;;;6215005;23;20436;-71
2021/11/22 02:55:19;;;;;;;1.30;0.45;;;21.10;63.70;;;;;;6214744;23;20078;-71
2021/11/22 02:57:45;;;;;;;0.38;0.30;;;21.10;63.80;;;;;;6214939;23;20008;-71
2021/11/22 03:00:16;;;;;;;1.45;0.30;;;21.10;63.80;;;;;;6215037;23;20004;-71
2021/11/22 03:02:42;;;;;;;0.30;0.30;;;21.10;63.70;;;;;;6164748;23;20466;-71
2021/11/22 03:05:08;;;;;;;1.38;0.28;;;21.10;63.70;;;;;;6188419;23;19997;-71
2021/11/22 03:07:34;;;;;;;0.57;0.30;;;21.10;63.80;;;;;;6188572;23;20336;-71
2021/11/22 03:09:59;;;;;;;0.80;0.30;;;21.10;63.80;;;;;;6188018;23;20000;-71
2021/11/22 03:12:25;;;;;;;0.50;0.20;;;21.10;63.80;;;;;;6163806;23;20001;-71
2021/11/22 03:14:50;;;;;;;1.30;0.30;;;21.10;63.70;;;;;;6188314;23;20000;-71
2021/11/22 03:17:17;;;;;;;1.17;0.50;;;21.10;63.80;;;;;;6188404;23;20004;-71
2021/11/22 03:19:43;;;;;;;1.75;0.40;;;21.10;64.80;;;;;;6163605;23;20020;-71
2021/11/22 03:22:09;;;;;;;0.45;0.30;;;21.10;63.80;;;;;;6214636;23;20062;-71
2021/11/22 03:24:34;;;;;;;0.60;0.30;;;21.10;63.80;;;;;;6187935;23;20064;-71
2021/11/22 03:27:01;;;;;;;0.45;0.45;;;21.10;63.90;;;;;;6188059;23;20019;-71
2021/11/22 03:29:27;;;;;;;3.25;0.30;;;21.00;63.80;;;;;;6188855;23;20072;-71
2021/11/22 03:31:52;;;;;;;0.30;0.15;;;21.10;63.90;;;;;;6214647;23;20467;-71
2021/11/22 03:34:19;;;;;;;1.02;0.32;;;21.10;63.90;;;;;;6188295;23;20321;-71
2021/11/22 03:36:46;;;;;;;0.40;0.40;;;21.00;63.90;;;;;;6188773;23;20024;-71
2021/11/22 03:39:18;;;;;;;1.15;0.50;;;21.10;63.90;;;;;;6214216;23;20012;-71
2021/11/22 03:41:43;;;;;;;0.67;0.30;;;21.00;63.90;;;;;;6165149;23;20004;-71
2021/11/22 03:44:15;;;;;;;0.35;0.20;;;21.00;63.90;;;;;;6188231;23;20005;-71
2021/11/22 03:46:46;;;;;;;1.00;0.20;;;21.00;63.90;;;;;;6189637;23;19997;-71
2021/11/22 03:49:11;;;;;;;0.25;0.25;;;21.10;64.00;;;;;;6214503;23;20216;-71
2021/11/22 03:51:37;;;;;;;0.32;0.32;;;21.00;64.00;;;;;;6163528;23;20340;-71
2021/11/22 03:54:03;;;;;;;1.13;0.22;;;21.00;64.00;;;;;;6187693;23;20051;-71
2021/11/22 03:56:29;;;;;;;0.75;0.38;;;21.10;64.00;;;;;;6188132;23;20428;-71
2021/11/22 03:58:54;;;;;;;0.75;0.40;;;21.00;64.00;;;;;;6188034;23;20004;-71
2021/11/22 04:01:20;;;;;;;1.05;0.30;;;21.00;64.00;;;;;;6214652;23;20001;-71
2021/11/22 04:03:46;;;;;;;0.50;0.30;;;21.00;64.00;;;;;;6214413;23;20036;-71
2021/11/22 04:06:12;;;;;;;0.25;0.20;;;21.00;64.00;;;;;;6214307;23;20023;-71
2021/11/22 04:08:38;;;;;;;0.30;0.20;;;21.00;64.10;;;;;;6214287;23;20001;-71
2021/11/22 04:11:03;;;;;;;0.25;0.15;;;21.00;64.00;;;;;;6214273;23;20022;-71
2021/11/22 04:13:29;;;;;;;0.63;0.22;;;21.00;64.00;;;;;;6188287;23;20000;-71
2021/11/22 04:15:55;;;;;;;0.93;0.40;;;21.00;64.10;;;;;;6214379;23;20059;-71
2021/11/22 04:18:20;;;;;;;1.45;0.50;;;21.00;64.10;;;;;;6187914;23;20071;-71
2021/11/22 04:20:46;;;;;;;0.70;0.38;;;21.00;64.10;;;;;;6214396;23;20352;-71
2021/11/22 04:23:12;;;;;;;0.45;0.20;;;21.00;64.10;;;;;;6187368;23;20035;-71
2021/11/22 04:25:38;;;;;;;0.45;0.25;;;21.00;64.10;;;;;;6162608;23;20000;-71
2021/11/22 04:28:05;;;;;;;0.22;0.22;;;21.00;64.10;;;;;;6188328;23;20036;-70
2021/11/22 04:30:31;;;;;;;0.50;0.40;;;21.00;64.10;;;;;;6164078;23;20328;-71
2021/11/22 04:32:57;;;;;;;2.92;0.25;;;21.00;64.10;;;;;;6214596;23;20032;-71
2021/11/22 04:35:23;;;;;;;1.20;0.38;;;21.00;64.20;;;;;;6188696;23;20011;-71
2021/11/22 04:37:48;;;;;;;0.57;0.28;;;21.00;64.10;;;;;;6188205;23;20000;-71
2021/11/22 04:40:15;;;;;;;0.73;0.20;;;21.00;64.10;;;;;;6214827;23;20000;-71
2021/11/22 04:42:45;;;;;;;1.05;0.35;;;21.00;64.20;;;;;;6163300;23;20035;-71
2021/11/22 04:45:11;;;;;;;3.78;0.47;;;21.00;64.20;;;;;;6189023;23;19996;-71
2021/11/22 04:47:36;;;;;;;0.32;0.20;;;21.00;64.20;;;;;;6163068;23;19997;-71
2021/11/22 04:50:02;;;;;;;1.65;0.30;;;21.00;64.20;;;;;;6164515;23;20076;-71
2021/11/22 04:52:28;;;;;;;0.82;0.40;;;21.00;64.20;;;;;;6215847;23;20071;-71
2021/11/22 04:54:54;;;;;;;1.75;0.50;;;21.00;64.20;;;;;;6189492;23;20444;-71
2021/11/22 04:57:19;;;;;;;1.08;0.30;;;21.00;64.20;;;;;;6216222;23;20001;-71
2021/11/22 04:59:45;;;;;;;0.50;0.30;;;21.00;64.20;;;;;;6189868;23;20054;-71
2021/11/22 05:02:11;;;;;;;0.70;0.20;;;21.00;64.20;;;;;;6164839;23;20075;-71
2021/11/22 05:04:37;;;;;;;1.27;0.52;;;21.00;64.20;;;;;;6165167;23;20001;-71
2021/11/22 05:07:03;;;;;;;1.73;0.40;;;21.00;64.20;;;;;;6188852;23;20431;-71
2021/11/22 05:09:29;;;;;;;1.98;0.32;;;21.00;64.30;;;;;;6189616;23;20375;-71
2021/11/22 05:11:55;;;;;;;0.38;0.22;;;21.00;64.30;;;;;;6189559;23;20000;-71
2021/11/22 05:14:20;;;;;;;1.15;0.30;;;21.00;64.30;;;;;;6189548;23;20000;-71
2021/11/22 05:16:46;;;;;;;0.95;0.20;;;21.00;64.30;;;;;;6216009;23;20452;-71
2021/11/22 05:19:12;;;;;;;0.60;0.30;;;21.00;64.30;;;;;;6189177;23;20075;-71
2021/11/22 05:21:38;;;;;;;1.40;0.22;;;21.00;64.30;;;;;;6189105;23;20000;-71
2021/11/22 05:24:04;;;;;;;0.40;0.30;;;21.00;64.30;;;;;;6189425;23;20012;-71
2021/11/22 05:26:31;;;;;;;3.40;0.30;;;21.00;65.40;;;;;;6164551;23;20023;-71
2021/11/22 05:29:00;;;;;;;0.63;0.30;;;21.00;64.30;;;;;;6164999;23;20032;-71
2021/11/22 05:31:25;;;;;;;0.50;0.40;;;21.00;64.40;;;;;;6165257;23;19997;-71
2021/11/22 05:33:51;;;;;;;0.40;0.40;;;21.00;64.40;;;;;;6189374;23;20001;-71
2021/11/22 05:36:17;;;;;;;2.45;0.52;;;21.00;64.40;;;;;;6188731;23;20005;-71
2021/11/22 05:38:43;;;;;;;0.60;0.40;;;21.00;64.40;;;;;;6189488;23;20008;-71
2021/11/22 05:41:09;;;;;;;0.70;0.25;;;21.00;64.50;;;;;;6188846;23;20004;-71
2021/11/22 05:43:36;;;;;;;0.60;0.30;;;21.00;64.40;;;;;;6215619;23;20106;-71
2021/11/22 05:46:05;;;;;;;0.90;0.40;;;21.00;64.40;;;;;;6189472;23;20028;-71
2021/11/22 05:48:31;;;;;;;1.63;0.30;;;21.00;64.40;;;;;;6164932;23;20000;-71
2021/11/22 05:50:56;;;;;;;0.82;0.25;;;21.00;64.40;;;;;;6188703;23;19996;-71
2021/11/22 05:53:22;;;;;;;0.65;0.20;;;21.00;64.40;;;;;;6164224;23;20062;-71
2021/11/22 05:55:51;;;;;;;0.10;0.10;;;21.00;64.40;;;;;;6189233;23;20008;-71
2021/11/22 05:58:17;;;;;;;0.50;0.30;;;21.00;64.50;;;;;;6189427;23;20066;-71
2021/11/22 06:00:43;;;;;;;0.30;0.20;;;21.00;64.50;;;;;;6164522;23;20016;-71
2021/11/22 06:03:09;;;;;;;0.40;0.20;;;21.00;64.50;;;;;;6215378;23;20000;-71
2021/11/22 06:05:35;;;;;;;0.65;0.30;;;21.00;64.50;;;;;;6188493;23;20000;-71
2021/11/22 06:08:00;;;;;;;0.65;0.20;;;21.00;64.50;;;;;;6215007;23;20388;-71
2021/11/22 06:10:26;;;;;;;0.43;0.20;;;21.00;64.50;;;;;;6188510;23;19997;-71
2021/11/22 06:12:52;;;;;;;0.47;0.30;;;21.00;64.50;;;;;;6163912;23;20001;-71
2021/11/22 06:15:18;;;;;;;1.10;0.40;;;21.00;64.50;;;;;;6187778;23;20011;-71
2021/11/22 06:17:43;;;;;;;0.30;0.30;;;21.00;64.50;;;;;;6188814;23;20027;-71
2021/11/22 06:20:09;;;;;;;0.43;0.40;;;21.00;64.50;;;;;;6214867;23;20008;-71
2021/11/22 06:22:35;;;;;;;0.73;0.30;;;21.00;64.50;;;;;;6163815;23;20016;-71
2021/11/22 06:25:01;;;;;;;0.45;0.30;;;21.00;64.50;;;;;;6215425;23;20004;-71
2021/11/22 06:27:27;;;;;;;1.20;0.45;;;21.00;64.50;;;;;;6188665;23;20039;-71
2021/11/22 06:29:52;;;;;;;1.27;0.40;;;21.00;64.50;;;;;;6164409;23;20007;-71
2021/11/22 06:32:18;;;;;;;0.22;0.20;;;21.00;64.50;;;;;;6188678;23;20005;-71
2021/11/22 06:34:44;;;;;;;0.70;0.28;;;21.00;64.60;;;;;;6188628;23;20027;-71
2021/11/22 06:37:09;;;;;;;0.68;0.30;;;21.00;64.60;;;;;;6163756;23;20012;-71
2021/11/22 06:39:35;;;;;;;1.30;0.40;;;21.00;64.70;;;;;;6164003;23;20011;-71
2021/11/22 06:42:01;;;;;;;0.63;0.40;;;21.00;64.60;;;;;;6188690;23;20004;-71
2021/11/22 06:44:27;;;;;;;2.50;0.40;;;21.00;64.60;;;;;;6163772;23;20335;-71
2021/11/22 06:46:52;;;;;;;1.05;0.38;;;21.00;64.60;;;;;;6188752;23;20000;-71
2021/11/22 06:49:19;;;;;;;0.75;0.30;;;21.00;64.60;;;;;;6214628;23;20007;-71
2021/11/22 06:51:46;;;;;;;0.80;0.35;;;21.00;64.60;;;;;;6188767;23;20001;-71
2021/11/22 06:54:11;;;;;;;0.75;0.20;;;21.00;64.60;;;;;;6187379;23;20503;-71
2021/11/22 06:56:37;;;;;;;0.22;0.20;;;21.00;64.70;;;;;;6187427;23;20032;-71
2021/11/22 06:59:03;;;;;;;1.17;0.28;;;21.00;64.70;;;;;;6187329;23;20044;-71
2021/11/22 07:01:29;;;;;;;0.52;0.30;;;21.00;64.70;;;;;;6213379;23;20003;-71
2021/11/22 07:03:55;;;;;;;0.47;0.40;;;21.00;64.70;;;;;;6187439;23;20001;-71
2021/11/22 07:06:20;;;;;;;0.65;0.20;;;21.00;64.70;;;;;;6186661;23;20001;-71
2021/11/22 07:08:46;;;;;;;0.70;0.30;;;21.00;64.70;;;;;;6213474;23;20340;-71
2021/11/22 07:11:11;;;;;;;0.40;0.30;;;21.00;64.70;;;;;;6212955;23;20336;-71
2021/11/22 07:13:38;;;;;;;0.47;0.20;;;21.00;64.70;;;;;;6186816;23;20004;-71
2021/11/22 07:16:04;;;;;;;0.85;0.28;;;21.00;64.80;;;;;;6213362;23;20336;-71
2021/11/22 07:18:29;;;;;;;1.77;0.30;;;21.00;64.70;;;;;;6186626;23;20012;-71
2021/11/22 07:20:55;;;;;;;0.73;0.30;;;21.00;65.80;;;;;;6188311;23;20028;-71
2021/11/22 07:23:22;;;;;;;1.08;0.50;;;21.00;64.70;;;;;;6188064;23;20522;-71
2021/11/22 07:25:49;;;;;;;0.75;0.38;;;21.00;64.50;;;;;;6163916;23;20001;-72
2021/11/22 07:28:15;;;;;;;3.90;0.50;;;20.90;64.40;;;;;;6188116;23;20004;-72
2021/11/22 07:30:40;;;;;;;0.40;0.30;;;20.90;64.50;;;;;;6188023;23;20007;-71
2021/11/22 07:33:06;;;;;;;0.90;0.38;;;20.90;64.50;;;;;;6186796;23;20080;-71
2021/11/22 07:35:32;;;;;;;1.23;0.40;;;20.90;64.50;;;;;;6186430;23;20011;-71
2021/11/22 07:37:57;;;;;;;1.08;0.30;;;20.80;64.40;;;;;;6213325;23;20012;-71
2021/11/22 07:40:23;;;;;;;0.55;0.43;;;20.90;64.50;;;;;;6186705;23;20009;-71
2021/11/22 07:42:50;;;;;;;0.75;0.40;;;20.80;64.40;;;;;;6213077;23;20004;-71
2021/11/22 07:45:15;;;;;;;0.30;0.30;;;20.80;64.40;;;;;;6186924;23;20440;-71
2021/11/22 07:47:41;;;;;;;0.63;0.40;;;20.80;64.40;;;;;;6213237;23;20024;-71
2021/11/22 07:50:07;;;;;;;1.33;0.60;;;20.80;64.40;;;;;;6187210;23;20076;-71
2021/11/22 07:52:32;;;;;;;5.32;1.30;;;20.80;64.30;;;;;;6160565;23;20009;-71
2021/11/22 07:54:58;;;;;;;8.70;1.50;;;20.80;64.30;;;;;;6184999;23;19996;-71
2021/11/22 07:57:24;;;;;;;8.25;1.77;;;20.80;64.30;;;;;;6211872;23;20004;-71
2021/11/22 07:59:51;;;;;;;8.57;1.80;;;20.80;64.30;;;;;;6211622;23;20015;-71
2021/11/22 08:02:16;;;;;;;6.55;1.40;;;20.80;64.30;;;;;;6185686;23;20083;-71
2021/11/22 08:04:42;;;;;;;7.57;1.63;;;20.80;64.30;;;;;;6186052;23;20005;-71
2021/11/22 08:07:17;;;;;;;7.25;1.48;;;20.70;64.20;;;;;;6213478;23;20001;-71
2021/11/22 08:09:59;;;;;;;10.43;1.77;;;20.70;64.20;;;;;;6189933;23;20448;-71
2021/11/22 08:12:26;;;;;;;8.25;1.55;;;20.70;65.20;;;;;;6212704;23;20001;-71
2021/11/22 08:14:57;;;;;;;5.30;1.42;;;20.60;64.20;;;;;;6187888;23;20059;-71
2021/11/22 08:17:23;;;;;;;6.35;1.50;;;20.70;64.20;;;;;;6187667;23;20082;-71
2021/11/22 08:19:48;;;;;;;6.53;1.92;;;20.60;64.20;;;;;;6186554;23;20440;-71
2021/11/22 08:22:14;;;;;;;4.82;1.30;;;20.70;64.20;;;;;;6214599;23;20001;-71
2021/11/22 08:24:40;;;;;;;6.47;1.52;;;20.60;64.20;;;;;;6189945;23;20027;-71
2021/11/22 08:27:05;;;;;;;5.32;1.55;;;20.60;64.20;;;;;;6189926;23;20379;-71
2021/11/22 08:29:31;;;;;;;5.03;1.38;;;20.60;64.10;;;;;;6164806;23;20000;-71
2021/11/22 08:31:57;;;;;;;4.82;1.52;;;20.50;64.00;;;;;;6190108;23;19996;-71
2021/11/22 08:34:22;;;;;;;5.45;1.35;;;20.60;64.10;;;;;;6189854;23;20032;-71
2021/11/22 08:36:48;;;;;;;3.50;1.08;;;20.50;64.10;;;;;;6216581;23;20001;-71
2021/11/22 08:39:14;;;;;;;7.78;1.70;;;20.50;64.00;;;;;;6216325;23;20001;-71
2021/11/22 08:41:39;;;;;;;4.30;1.20;;;20.50;64.10;;;;;;6189830;23;20036;-71
2021/11/22 08:44:05;;;;;;;4.80;1.50;;;20.40;64.00;;;;;;6215967;23;20001;-71
2021/11/22 08:46:35;;;;;;;4.97;1.23;;;20.40;64.00;;;;;;6189776;23;20005;-71
2021/11/22 08:49:01;;;;;;;7.13;1.30;;;20.40;63.90;;;;;;6216319;23;19997;-71
2021/11/22 08:51:26;;;;;;;7.22;1.52;;;20.40;64.00;;;;;;6216236;23;20043;-71
2021/11/22 08:53:52;;;;;;;5.20;1.55;;;20.40;64.00;;;;;;6189646;23;20063;-71
2021/11/22 08:56:18;;;;;;;6.43;1.27;;;20.40;64.00;;;;;;6189691;23;20008;-71
2021/11/22 08:58:43;;;;;;;4.15;1.20;;;20.30;63.90;;;;;;6189458;23;20001;-71
2021/11/22 09:01:09;;;;;;;6.10;1.25;;;20.30;63.90;;;;;;6189771;23;20007;-71
2021/11/22 09:03:35;;;;;;;3.30;1.05;;;20.40;63.90;;;;;;6215865;23;20005;-71
2021/11/22 09:06:01;;;;;;;3.80;1.20;;;20.30;63.80;;;;;;6216202;23;20003;-71
2021/11/22 09:08:27;;;;;;;4.90;1.38;;;20.30;63.90;;;;;;6215976;23;19996;-71
2021/11/22 09:10:52;;;;;;;3.50;1.00;;;20.30;63.80;;;;;;6216216;23;20000;-71
2021/11/22 09:13:18;;;;;;;7.38;1.15;;;20.30;63.80;;;;;;6215693;23;20067;-71
2021/11/22 09:15:44;;;;;;;5.65;1.27;;;20.30;63.80;;;;;;6164834;23;20011;-71
2021/11/22 09:18:10;;;;;;;8.20;1.42;;;20.20;63.80;;;;;;6164926;23;20348;-71
2021/11/22 09:20:35;;;;;;;3.33;1.08;;;20.20;63.80;;;;;;6215743;23;20459;-71
2021/11/22 09:23:02;;;;;;;4.25;1.30;;;20.20;63.80;;;;;;6189469;23;20004;-71
2021/11/22 09:25:28;;;;;;;3.80;0.93;;;20.20;63.70;;;;;;6215889;23;20047;-71
2021/11/22 09:27:55;;;;;;;4.07;1.15;;;20.20;63.70;;;;;;6164257;23;20020;-71
2021/11/22 09:30:20;;;;;;;2.97;1.17;;;20.20;63.80;;;;;;6189733;23;20054;-71
2021/11/22 09:32:46;;;;;;;4.32;1.00;;;20.20;63.70;;;;;;6164551;23;20009;-71
2021/11/22 09:35:12;;;;;;;2.38;0.95;;;20.20;63.70;;;;;;6215519;23;20440;-71
2021/11/22 09:37:38;;;;;;;3.03;0.80;;;20.10;63.70;;;;;;6189351;23;20005;-71
2021/11/22 09:40:04;;;;;;;2.85;0.98;;;20.10;63.70;;;;;;6216006;23;20012;-71
2021/11/22 09:42:30;;;;;;;3.50;0.85;;;20.10;63.70;;;;;;6215578;23;20004;-71
2021/11/22 09:44:56;;;;;;;2.58;0.75;;;20.10;63.60;;;;;;6189170;23;20000;-71
2021/11/22 09:47:21;;;;;;;7.55;1.20;;;20.10;63.60;;;;;;6189401;23;20054;-71
2021/11/22 09:49:47;;;;;;;4.60;1.10;;;20.10;63.70;;;;;;6215507;23;20134;-71
2021/11/22 09:52:12;;;;;;;2.70;0.82;;;20.10;63.70;;;;;;6189380;23;20463;-71
2021/11/22 09:54:38;;;;;;;2.65;1.05;;;20.10;63.60;;;;;;6215571;23;20012;-71
2021/11/22 09:57:04;;;;;;;2.33;0.90;;;20.00;63.60;;;;;;6215239;23;20005;-71
2021/11/22 09:59:29;;;;;;;1.67;0.73;;;20.00;63.60;;;;;;6189191;23;20393;-71
2021/11/22 10:01:56;;;;;;;1.42;0.70;;;20.00;63.60;;;;;;6215558;23;20079;-71
2021/11/22 10:04:22;;;;;;;1.88;0.60;;;20.00;63.60;;;;;;6189201;23;20000;-71
2021/11/22 10:06:55;;;;;;;2.92;0.88;;;20.00;63.70;;;;;;6188953;23;20005;-71
2021/11/22 10:09:30;;;;;;;1.95;0.80;;;20.00;63.50;;;;;;6189131;23;19996;-71
2021/11/22 10:11:59;;;;;;;3.03;0.90;;;20.00;64.50;;;;;;6188534;23;20079;-71
2021/11/22 10:14:26;;;;;;;1.33;0.73;;;20.00;63.60;;;;;;6165028;23;20063;-71
2021/11/22 10:16:51;;;;;;;2.88;0.80;;;20.00;63.60;;;;;;6164513;23;20052;-71
2021/11/22 10:19:19;;;;;;;1.00;0.52;;;20.00;63.50;;;;;;6188970;23;19997;-71
2021/11/22 10:21:45;;;;;;;2.17;0.82;;;20.00;63.50;;;;;;6188731;23;20000;-71
2021/11/22 10:24:11;;;;;;;1.58;0.60;;;20.00;63.50;;;;;;6188874;23;20313;-71
2021/11/22 10:26:50;;;;;;;0.95;0.68;;;20.00;63.50;;;;;;6163608;23;20380;-71
2021/11/22 10:29:26;;;;;;;3.97;0.90;;;20.00;63.50;;;;;;6191044;23;20367;-71
2021/11/22 10:31:56;;;;;;;3.70;0.80;;;20.00;63.50;;;;;;6164320;23;20007;-71
2021/11/22 10:34:21;;;;;;;1.33;0.40;;;19.90;63.50;;;;;;6188818;23;20001;-71
2021/11/22 10:36:57;;;;;;;1.95;0.70;;;19.90;63.50;;;;;;6188719;23;20510;-71
2021/11/22 10:39:23;;;;;;;2.75;0.93;;;19.90;63.50;;;;;;6214969;23;19996;-71
2021/11/22 10:41:48;;;;;;;2.05;0.90;;;19.90;63.50;;;;;;6215056;23;20023;-71
2021/11/22 10:44:15;;;;;;;1.90;0.60;;;19.90;63.50;;;;;;6215159;23;20510;-71
2021/11/22 10:46:53;;;;;;;2.72;0.88;;;19.90;63.50;;;;;;6188497;23;20001;-71
2021/11/22 10:49:30;;;;;;;2.47;0.70;;;19.90;63.40;;;;;;6189503;23;20037;-71
2021/11/22 10:52:35;;;;;;;3.17;0.75;;;19.90;63.60;;;;;;6215134;23;20000;-71
2021/11/22 10:55:07;;;;;;;1.40;0.52;;;19.90;63.40;;;;;;6191495;23;20032;-71
2021/11/22 10:57:51;;;;;;;3.47;0.83;;;19.90;63.60;;;;;;6215054;23;20001;-71
2021/11/22 11:00:25;;;;;;;1.85;0.55;;;19.80;63.50;;;;;;6215056;23;20006;-71
2021/11/22 11:02:58;;;;;;;1.60;0.73;;;19.90;63.60;;;;;;6214891;23;20134;-71
2021/11/22 11:05:29;;;;;;;1.40;0.70;;;19.90;63.50;;;;;;6163954;23;20001;-71
2021/11/22 11:08:01;;;;;;;0.93;0.50;;;19.80;63.50;;;;;;6215011;23;20007;-71
2021/11/22 11:10:27;;;;;;;0.70;0.47;;;19.80;63.50;;;;;;6214842;23;20432;-71
2021/11/22 11:12:56;;;;;;;1.52;0.60;;;19.80;63.50;;;;;;6163607;23;20039;-71
2021/11/22 11:15:22;;;;;;;0.70;0.40;;;19.80;63.50;;;;;;6189176;23;20005;-71
2021/11/22 11:17:48;;;;;;;3.13;0.88;;;19.80;63.50;;;;;;6188331;23;20071;-71
2021/11/22 11:20:16;;;;;;;1.42;0.38;;;19.80;63.50;;;;;;6188279;23;20039;-71
2021/11/22 11:22:41;;;;;;;0.98;0.60;;;19.80;63.40;;;;;;6163413;23;20451;-71
2021/11/22 11:25:07;;;;;;;1.50;0.47;;;19.80;63.50;;;;;;6188262;23;19996;-71
2021/11/22 11:27:34;;;;;;;1.60;0.60;;;19.80;63.50;;;;;;6214515;23;20009;-71
2021/11/22 11:30:00;;;;;;;1.08;0.50;;;19.80;63.50;;;;;;6188576;23;20046;-71
2021/11/22 11:32:28;;;;;;;1.60;0.70;;;19.80;63.50;;;;;;6214767;23;20000;-71
2021/11/22 11:34:55;;;;;;;1.80;0.47;;;19.80;63.40;;;;;;6188678;23;20000;-71
2021/11/22 11:37:36;;;;;;;1.02;0.50;;;19.80;63.40;;;;;;6139033;23;20010;-71
2021/11/22 11:40:23;;;;;;;0.40;0.38;;;19.80;63.40;;;;;;6188995;23;20011;-71
2021/11/22 11:42:59;;;;;;;1.20;0.50;;;19.80;63.30;;;;;;6214659;23;20000;-71
2021/11/22 11:45:44;;;;;;;1.15;0.40;;;19.80;63.50;;;;;;6189635;23;20004;-71
2021/11/22 11:48:21;;;;;;;0.90;0.50;;;19.70;63.50;;;;;;6188399;23;20043;-71
2021/11/22 11:50:47;;;;;;;2.05;0.40;;;19.80;63.40;;;;;;6188420;23;20000;-71
2021/11/22 11:53:16;;;;;;;0.82;0.30;;;19.70;63.50;;;;;;6214309;23;20384;-71
2021/11/22 11:55:43;;;;;;;0.73;0.40;;;19.70;63.40;;;;;;6187760;23;20387;-71
2021/11/22 11:58:26;;;;;;;0.47;0.30;;;19.70;63.40;;;;;;6188169;23;20010;-71
2021/11/22 12:00:58;;;;;;;0.85;0.52;;;19.70;63.40;;;;;;6188743;23;20007;-71
2021/11/22 12:03:32;;;;;;;2.25;0.45;;;19.70;63.50;;;;;;6188198;23;20009;-71
2021/11/22 12:05:58;;;;;;;0.47;0.38;;;19.70;63.50;;;;;;6187671;23;20009;-71
2021/11/22 12:08:33;;;;;;;0.73;0.40;;;19.70;63.60;;;;;;6188166;23;20028;-71
2021/11/22 12:11:03;;;;;;;1.08;0.60;;;19.70;63.40;;;;;;6214528;23;20035;-71
2021/11/22 12:13:49;;;;;;;0.75;0.55;;;19.70;63.40;;;;;;6188254;23;20004;-71
2021/11/22 12:16:39;;;;;;;0.57;0.43;;;19.70;63.30;;;;;;6214554;23;20344;-71
2021/11/22 12:19:39;;;;;;;0.68;0.40;;;19.70;63.30;;;;;;6214510;23;20033;-71
2021/11/22 12:22:13;;;;;;;0.75;0.40;;;19.70;63.30;;;;;;6187539;23;20001;-71
2021/11/22 12:24:40;;;;;;;1.33;0.52;;;19.70;63.50;;;;;;6163392;23;20429;-71
2021/11/22 12:27:32;;;;;;;1.45;0.47;;;19.70;63.50;;;;;;6187692;23;20376;-71
2021/11/22 12:29:59;;;;;;;0.88;0.47;;;19.70;63.40;;;;;;6188076;23;20051;-71
2021/11/22 12:32:30;;;;;;;0.80;0.40;;;19.70;63.50;;;;;;6163310;23;20005;-71
2021/11/22 12:34:59;;;;;;;0.70;0.30;;;19.70;63.50;;;;;;6187723;23;20004;-71
2021/11/22 12:37:26;;;;;;;0.50;0.40;;;19.70;63.50;;;;;;6164017;23;20007;-71
2021/11/22 12:39:51;;;;;;;0.45;0.30;;;19.70;63.50;;;;;;6187903;23;20024;-71
2021/11/22 12:42:19;;;;;;;1.52;0.38;;;19.70;63.50;;;;;;6163094;23;20011;-71
2021/11/22 12:44:56;;;;;;;0.73;0.40;;;19.70;63.50;;;;;;6214330;23;20001;-71
2021/11/22 12:47:26;;;;;;;1.17;0.47;;;19.70;63.40;;;;;;6188303;23;20004;-71
2021/11/22 12:49:52;;;;;;;0.98;0.38;;;19.70;63.50;;;;;;6187630;23;20007;-71